Time;durP1;ratioP1;P1;durP2;ratioP2;P2;SDS_P1;SDS_P2;PMS_P1;PMS_P2;Temp;Humidity;BMP_temperature;BMP_pressure;BME280_temperature;BME280_humidity;BME280_pressure;Samples;Min_cycle;Max_cycle;Signal;HPM_P1;HPM_P2
2022/02/10 00:14:40;;;;;;;18.73;13.90;;;9.50;92.50;;;;;;5018598;28;20167;-92
2022/02/10 00:17:26;;;;;;;20.87;14.20;;;9.50;92.60;;;;;;5016664;28;20159;-92
2022/02/10 00:36:46;;;;;;;19.00;15.37;;;9.60;90.40;;;;;;5006474;28;20167;-88
2022/02/10 00:39:33;;;;;;;20.97;16.07;;;9.40;91.80;;;;;;5005771;28;20218;-86
2022/02/10 00:42:02;;;;;;;21.37;16.33;;;9.30;92.80;;;;;;4995515;28;20210;-90
2022/02/10 00:44:28;;;;;;;22.17;15.33;;;9.00;93.50;;;;;;4996067;28;20174;-87
2022/02/10 00:46:56;;;;;;;20.50;14.93;;;8.90;94.10;;;;;;4996604;28;20163;-88
2022/02/10 00:49:22;;;;;;;21.53;15.93;;;8.90;94.70;;;;;;5001110;28;20159;-91
2022/02/10 00:51:50;;;;;;;24.33;16.03;;;8.80;95.20;;;;;;5002421;28;20182;-93
2022/02/10 00:54:22;;;;;;;24.87;16.10;;;8.90;95.60;;;;;;5000577;28;20183;-93
2022/02/10 00:56:52;;;;;;;23.17;16.53;;;8.90;95.70;;;;;;5010803;28;20179;-91
2022/02/10 01:12:55;;;;;;;22.17;16.30;;;8.80;95.80;;;;;;5017081;28;20203;-92
2022/02/10 01:31:49;;;;;;;21.60;15.43;;;9.00;93.90;;;;;;5014188;28;20261;-91
2022/02/10 01:34:15;;;;;;;20.30;15.30;;;8.70;94.30;;;;;;5015671;28;20179;-90
2022/02/10 01:36:41;;;;;;;24.80;16.00;;;8.50;95.80;;;;;;5018892;28;20170;-90
2022/02/10 01:39:08;;;;;;;22.87;16.53;;;8.30;96.70;;;;;;5017478;28;20715;-92
2022/02/10 02:03:58;;;;;;;23.57;17.00;;;8.30;97.30;;;;;;5003414;28;20232;-90
2022/02/10 02:06:27;;;;;;;23.87;16.93;;;8.10;97.90;;;;;;5004518;28;20258;-92
2022/02/10 02:08:53;;;;;;;22.43;16.70;;;8.00;98.40;;;;;;4997271;28;20210;-92
2022/02/10 02:11:26;;;;;;;23.93;17.17;;;8.00;98.90;;;;;;5019009;28;20174;-88
2022/02/10 02:13:54;;;;;;;23.13;17.67;;;8.00;99.20;;;;;;5019185;28;20251;-89
2022/02/10 02:16:25;;;;;;;23.30;17.67;;;8.00;99.10;;;;;;5014483;28;20171;-88
2022/02/10 02:18:51;;;;;;;26.87;17.17;;;8.20;99.20;;;;;;5012020;28;20226;-87
2022/02/10 02:21:20;;;;;;;23.93;18.07;;;8.20;98.80;;;;;;5014192;28;20168;-89
2022/02/10 02:23:46;;;;;;;22.43;17.60;;;8.10;98.80;;;;;;5013645;28;20174;-89
2022/02/10 02:26:16;;;;;;;21.60;17.67;;;8.20;98.80;;;;;;5014366;28;20186;-89
2022/02/10 02:28:50;;;;;;;25.07;18.87;;;8.10;98.90;;;;;;5015879;28;20171;-90
2022/02/10 02:31:24;;;;;;;23.60;17.40;;;7.90;98.90;;;;;;5006432;28;20167;-92
2022/02/10 02:39:32;;;;;;;26.33;20.63;;;7.70;99.90;;;;;;5003417;28;20218;-93
2022/02/10 03:06:56;;;;;;;27.10;18.77;;;7.70;99.90;;;;;;5004384;28;20190;-93
2022/02/10 03:09:39;;;;;;;24.00;18.00;;;7.80;99.30;;;;;;5002300;28;20202;-92
2022/02/10 03:12:12;;;;;;;26.53;18.53;;;7.90;98.60;;;;;;5004706;28;20199;-92
2022/02/10 03:14:45;;;;;;;24.57;17.97;;;7.40;99.00;;;;;;5012859;28;20174;-92
2022/02/10 05:21:54;;;;;;;28.43;20.83;;;7.20;99.90;;;;;;5002546;28;20175;-89
2022/02/10 05:35:17;;;;;;;28.33;21.77;;;7.20;99.90;;;;;;5002705;28;20211;-91
2022/02/10 05:37:34;;;;;;;32.50;21.43;;;7.30;99.90;;;;;;5002615;28;20183;-90
2022/02/10 05:40:06;;;;;;;31.07;22.17;;;7.40;99.90;;;;;;5003057;28;20261;-92
2022/02/10 05:45:23;;;;;;;33.70;21.50;;;7.20;99.90;;;;;;5005592;28;20542;-91
2022/02/10 05:48:23;;;;;;;34.33;22.47;;;7.20;99.90;;;;;;5005322;28;20199;-91
2022/02/10 05:56:08;;;;;;;30.60;23.23;;;7.10;99.90;;;;;;5020395;28;20182;-92
2022/02/10 05:59:06;;;;;;;32.40;23.90;;;7.20;99.90;;;;;;5002911;28;20595;-93
2022/02/10 06:51:16;;;;;;;36.70;23.27;;;7.50;99.90;;;;;;5006646;28;20164;-90
2022/02/10 06:54:04;;;;;;;32.40;22.83;;;7.50;99.90;;;;;;5005228;28;20171;-90
2022/02/10 07:43:59;;;;;;;36.53;22.67;;;7.70;99.90;;;;;;5006411;28;20174;-93
2022/02/10 07:59:36;;;;;;;39.40;24.63;;;7.80;99.90;;;;;;5012641;28;20226;-92
2022/02/10 08:49:41;;;;;;;38.67;25.50;;;8.00;99.90;;;;;;5003218;28;20221;-90
2022/02/10 09:05:19;;;;;;;31.87;21.67;;;8.30;99.90;;;;;;5002297;28;20190;-92
2022/02/10 10:01:00;;;;;;;21.83;17.07;;;8.60;99.90;;;;;;4999026;28;20208;-94
2022/02/10 10:03:34;;;;;;;27.33;17.43;;;8.80;99.90;;;;;;4997854;28;20251;-93
2022/02/10 10:06:15;;;;;;;21.27;16.60;;;8.70;99.90;;;;;;5013944;28;20179;-91
2022/02/10 10:09:01;;;;;;;22.10;16.63;;;8.70;99.90;;;;;;5015198;28;20163;-92
2022/02/10 10:12:06;;;;;;;20.40;16.53;;;8.70;99.90;;;;;;5016371;28;20167;-93
2022/02/10 10:14:42;;;;;;;23.50;16.50;;;8.80;99.90;;;;;;5006668;28;20286;-94
2022/02/10 10:20:40;;;;;;;21.60;15.43;;;8.80;99.90;;;;;;5011289;28;20214;-94
2022/02/10 10:23:35;;;;;;;18.93;15.13;;;8.80;99.90;;;;;;5011052;28;20214;-94
2022/02/10 10:50:08;;;;;;;15.83;12.17;;;9.30;99.90;;;;;;5011018;28;20194;-94
2022/02/10 10:53:04;;;;;;;14.87;10.97;;;9.60;99.90;;;;;;5005023;28;20247;-95
2022/02/10 10:57:57;;;;;;;12.07;10.30;;;9.40;99.90;;;;;;5006072;28;20222;-94
2022/02/10 11:00:37;;;;;;;15.63;10.67;;;9.60;99.90;;;;;;4973492;28;20187;-94
2022/02/10 11:38:07;;;;;;;10.33;7.20;;;10.20;99.90;;;;;;5134320;23;20243;-94
2022/02/10 11:44:17;;;;;;;9.83;7.03;;;10.20;99.90;;;;;;5028017;28;20187;-92
2022/02/10 13:25:56;;;;;;;12.00;7.57;;;10.20;93.50;;;;;;4995110;28;20199;-94
2022/02/10 14:17:11;;;;;;;7.80;3.37;;;10.00;82.50;;;;;;5010321;28;20217;-95
2022/02/10 14:19:43;;;;;;;10.07;4.00;;;10.10;74.50;;;;;;4993311;28;20314;-92
2022/02/10 14:22:53;;;;;;;6.30;2.97;;;10.10;74.10;;;;;;4992431;28;20206;-92
2022/02/10 14:27:49;;;;;;;8.27;3.50;;;10.10;71.70;;;;;;5000242;28;20219;-94
2022/02/10 14:30:20;;;;;;;14.20;6.90;;;10.20;72.70;;;;;;4978295;28;20209;-94
2022/02/10 14:32:46;;;;;;;12.73;4.23;;;10.00;76.50;;;;;;5001570;28;20230;-89
2022/02/10 14:35:25;;;;;;;8.50;4.47;;;10.00;82.50;;;;;;4986430;28;20278;-91
2022/02/10 14:38:12;;;;;;;6.80;4.13;;;9.60;88.20;;;;;;5019784;28;20170;-89
2022/02/10 15:21:47;;;;;;;13.10;9.03;;;9.50;92.30;;;;;;5000223;28;20244;-94
2022/02/10 15:52:46;;;;;;;5.70;3.53;;;8.90;86.10;;;;;;4995048;28;20179;-90
2022/02/10 16:17:27;;;;;;;10.40;5.90;;;9.40;91.30;;;;;;5008522;28;20229;-93
2022/02/10 16:19:54;;;;;;;9.80;5.30;;;9.30;90.90;;;;;;4992727;28;20210;-94
2022/02/10 16:22:36;;;;;;;9.80;5.40;;;9.30;90.00;;;;;;4993499;28;20257;-94
2022/02/10 16:25:12;;;;;;;11.67;5.40;;;9.20;90.00;;;;;;5080969;23;20293;-92
2022/02/10 16:27:48;;;;;;;7.60;4.93;;;9.20;90.40;;;;;;5015012;28;20269;-94
2022/02/10 16:30:19;;;;;;;8.73;5.30;;;9.10;90.40;;;;;;5017271;28;20188;-94
2022/02/10 16:32:56;;;;;;;12.53;5.90;;;9.00;90.90;;;;;;5023704;28;20241;-95
2022/02/10 16:35:25;;;;;;;10.77;5.50;;;9.00;91.70;;;;;;5031706;28;20208;-94
2022/02/10 16:38:03;;;;;;;11.73;5.10;;;8.80;93.10;;;;;;5011230;28;20192;-96
2022/02/10 16:40:35;;;;;;;9.87;5.43;;;8.80;93.90;;;;;;5028812;28;20212;-94
2022/02/10 16:43:07;;;;;;;9.33;4.63;;;8.40;94.30;;;;;;5009056;28;20186;-94
2022/02/10 16:46:12;;;;;;;8.80;4.30;;;8.40;94.70;;;;;;5010964;28;20193;-95
2022/02/10 16:48:57;;;;;;;10.73;5.47;;;8.50;94.30;;;;;;5007171;28;20182;-96
2022/02/10 16:51:25;;;;;;;12.67;5.70;;;8.50;93.00;;;;;;5021206;28;20186;-93
2022/02/10 16:54:18;;;;;;;8.63;5.03;;;8.50;92.70;;;;;;5016814;28;20228;-93
2022/02/10 16:57:23;;;;;;;8.30;4.73;;;8.50;91.90;;;;;;5001501;28;20190;-93
2022/02/10 17:02:47;;;;;;;6.03;3.10;;;8.00;92.90;;;;;;5039623;28;20155;-94
2022/02/10 17:17:17;;;;;;;4.80;2.57;;;7.70;93.30;;;;;;5034296;28;20181;-93
2022/02/10 17:25:44;;;;;;;6.07;3.20;;;7.60;92.30;;;;;;5031629;28;20266;-92
2022/02/10 17:28:11;;;;;;;6.47;2.83;;;7.80;93.00;;;;;;5004591;28;20178;-89
2022/02/10 17:33:32;;;;;;;6.33;3.33;;;7.70;93.10;;;;;;5034335;28;20301;-90
2022/02/10 17:36:15;;;;;;;9.47;3.70;;;7.90;93.10;;;;;;5014043;28;20198;-92
2022/02/10 17:51:24;;;;;;;5.80;2.57;;;7.60;92.00;;;;;;5028542;28;20174;-93
2022/02/10 17:52:59;;;;;;;3.77;1.90;;;7.30;83.20;;;;;;4995208;28;20182;-91
2022/02/10 17:55:41;;;;;;;4.13;1.87;;;7.40;79.30;;;;;;5009891;28;20650;-94
2022/02/10 17:58:23;;;;;;;4.63;2.03;;;7.40;84.70;;;;;;5001401;28;20265;-93
2022/02/10 18:00:57;;;;;;;5.40;2.67;;;7.60;85.60;;;;;;4992190;28;20182;-92
2022/02/10 18:03:23;;;;;;;5.23;2.23;;;7.30;86.20;;;;;;5004930;28;20219;-91
2022/02/10 18:06:28;;;;;;;5.67;2.77;;;7.20;86.70;;;;;;5009815;28;20174;-92
2022/02/10 18:15:11;;;;;;;4.23;1.47;;;7.00;92.50;;;;;;5027938;28;20173;-90
2022/02/10 18:17:44;;;;;;;3.93;2.20;;;6.90;91.40;;;;;;5006794;28;20252;-88
2022/02/10 18:20:16;;;;;;;5.17;2.03;;;7.00;91.10;;;;;;4983911;28;20214;-92
2022/02/10 18:23:10;;;;;;;4.90;1.90;;;6.90;91.10;;;;;;5012184;28;20559;-88
2022/02/10 19:08:11;;;;;;;3.47;0.90;;;6.10;92.20;;;;;;5019386;28;20182;-88
2022/02/10 19:10:44;;;;;;;1.87;1.00;;;6.00;93.20;;;;;;5000747;28;20198;-90
2022/02/10 19:13:18;;;;;;;3.60;1.30;;;6.00;94.40;;;;;;5000743;28;20261;-90
2022/02/10 19:15:50;;;;;;;3.57;1.13;;;6.10;95.00;;;;;;5002950;28;20645;-90
2022/02/10 19:18:17;;;;;;;2.90;1.23;;;6.20;95.00;;;;;;5003603;28;20178;-91
2022/02/10 19:20:43;;;;;;;4.40;2.80;;;6.30;94.60;;;;;;5001998;28;20202;-90
2022/02/10 19:23:10;;;;;;;5.07;2.10;;;6.50;94.00;;;;;;5003326;28;20224;-91
2022/02/10 19:25:39;;;;;;;2.47;1.10;;;6.50;93.20;;;;;;5001817;28;20198;-91
2022/02/10 19:28:07;;;;;;;2.33;1.10;;;6.40;92.70;;;;;;5020937;28;20178;-93
2022/02/10 19:30:38;;;;;;;2.97;1.20;;;6.30;93.20;;;;;;5003929;28;20174;-89
2022/02/10 19:33:09;;;;;;;3.90;1.77;;;6.30;92.50;;;;;;5004720;28;20186;-91
2022/02/10 19:35:44;;;;;;;3.17;1.40;;;6.40;93.30;;;;;;5011273;28;20174;-91
2022/02/10 19:38:15;;;;;;;2.90;1.20;;;6.10;94.10;;;;;;5005400;28;20657;-89
2022/02/10 19:40:42;;;;;;;3.97;1.50;;;6.20;94.40;;;;;;5001866;28;20182;-90
2022/02/10 19:43:10;;;;;;;4.40;1.50;;;6.00;94.50;;;;;;5002699;28;20162;-89
2022/02/10 19:45:36;;;;;;;6.17;1.60;;;6.30;95.10;;;;;;4985319;28;20179;-90
2022/02/10 19:48:03;;;;;;;2.67;1.40;;;6.20;95.00;;;;;;5000305;28;20170;-89
2022/02/10 19:50:31;;;;;;;4.77;1.67;;;6.30;94.90;;;;;;5004257;28;20183;-92
2022/02/10 19:53:01;;;;;;;3.10;1.50;;;6.50;94.30;;;;;;5011328;28;20181;-91
2022/02/10 19:55:32;;;;;;;6.50;1.80;;;6.20;94.30;;;;;;5005023;28;20220;-91
2022/02/10 19:58:04;;;;;;;2.77;1.57;;;6.20;94.60;;;;;;5013139;28;20250;-91
2022/02/10 20:00:37;;;;;;;3.80;1.60;;;6.10;95.00;;;;;;5018881;28;20178;-89
2022/02/10 20:03:10;;;;;;;3.80;1.93;;;6.10;95.70;;;;;;5016325;28;20178;-90
2022/02/10 20:05:36;;;;;;;4.77;1.60;;;6.00;95.40;;;;;;5017554;28;20225;-88
2022/02/10 20:08:02;;;;;;;3.00;1.67;;;6.00;95.90;;;;;;5016949;28;20189;-90
2022/02/10 20:10:28;;;;;;;4.50;1.90;;;6.10;96.20;;;;;;5014141;28;20177;-88
2022/02/10 20:12:54;;;;;;;3.77;1.87;;;6.10;95.90;;;;;;5012074;28;20196;-89
2022/02/10 20:15:22;;;;;;;3.57;1.53;;;6.20;96.40;;;;;;5031037;28;20190;-89
2022/02/10 20:17:51;;;;;;;4.10;1.70;;;6.10;96.70;;;;;;5013719;28;20206;-90
2022/02/10 20:20:18;;;;;;;5.03;1.70;;;6.10;96.90;;;;;;5031540;28;20254;-92
2022/02/10 20:22:46;;;;;;;3.37;1.93;;;6.20;96.50;;;;;;5020563;28;20178;-89
2022/02/10 20:25:12;;;;;;;5.80;2.50;;;6.20;96.40;;;;;;5017267;28;20240;-90
2022/02/10 20:27:40;;;;;;;4.20;2.40;;;6.30;96.00;;;;;;4995625;28;20178;-91
2022/02/10 20:30:08;;;;;;;5.53;2.10;;;6.50;95.60;;;;;;5016332;28;20197;-91
2022/02/10 20:32:39;;;;;;;4.03;2.70;;;6.30;95.70;;;;;;5014389;28;20174;-91
2022/02/10 20:35:10;;;;;;;7.63;2.67;;;6.40;95.10;;;;;;5015989;28;20642;-92
2022/02/10 20:37:37;;;;;;;6.00;2.80;;;6.20;95.20;;;;;;5007573;28;20163;-91
2022/02/10 20:40:06;;;;;;;3.20;2.40;;;6.10;96.10;;;;;;5002046;28;20199;-89
2022/02/10 20:42:33;;;;;;;6.00;2.50;;;6.20;96.50;;;;;;5009955;28;20175;-90
2022/02/10 20:44:59;;;;;;;4.83;2.73;;;6.20;96.50;;;;;;5005152;28;20179;-90
2022/02/10 20:47:31;;;;;;;4.70;2.40;;;6.30;96.40;;;;;;5007471;28;20189;-90
2022/02/10 20:49:59;;;;;;;4.47;2.57;;;6.10;96.50;;;;;;5005044;28;20194;-90
2022/02/10 20:52:34;;;;;;;3.83;2.50;;;6.10;96.10;;;;;;5002195;28;20186;-90
2022/02/10 20:55:00;;;;;;;8.07;3.00;;;6.30;95.20;;;;;;5016527;28;20213;-89
2022/02/10 20:57:29;;;;;;;5.93;2.53;;;6.10;94.90;;;;;;5001714;28;20171;-89
2022/02/10 20:59:57;;;;;;;5.80;2.67;;;6.10;95.40;;;;;;5000773;28;20230;-91
2022/02/10 21:02:31;;;;;;;3.63;2.57;;;6.30;95.80;;;;;;5003252;28;20641;-90
2022/02/10 21:05:11;;;;;;;4.43;3.00;;;6.00;95.50;;;;;;5001799;28;20185;-92
2022/02/10 21:07:44;;;;;;;4.70;2.90;;;6.00;95.90;;;;;;5005427;28;20176;-92
2022/02/10 21:10:17;;;;;;;3.97;3.10;;;6.00;96.30;;;;;;5006058;28;20174;-91
2022/02/10 21:12:48;;;;;;;4.83;2.67;;;6.00;96.70;;;;;;5005735;28;20273;-92
2022/02/10 21:15:26;;;;;;;7.97;3.87;;;6.00;96.40;;;;;;5005853;28;20178;-94
2022/02/10 21:17:57;;;;;;;7.10;3.50;;;5.90;96.70;;;;;;5003322;28;20265;-92
2022/02/10 21:20:30;;;;;;;5.00;3.00;;;6.00;97.20;;;;;;5007263;28;20272;-91
2022/02/10 21:23:25;;;;;;;6.97;3.30;;;5.90;97.20;;;;;;5006702;28;20182;-93
2022/02/10 21:25:46;;;;;;;7.13;3.63;;;5.90;96.70;;;;;;5021601;28;20596;-90
2022/02/10 21:28:34;;;;;;;5.20;3.47;;;5.90;96.90;;;;;;5005991;28;20177;-94
2022/02/10 21:31:08;;;;;;;3.90;2.77;;;6.00;97.20;;;;;;5005132;28;20320;-91
2022/02/10 21:36:46;;;;;;;3.47;2.50;;;5.90;97.40;;;;;;5023906;28;20162;-91
2022/02/10 22:20:05;;;;;;;5.60;4.20;;;5.90;98.50;;;;;;5021089;28;20206;-91
2022/02/10 22:22:39;;;;;;;7.13;4.67;;;5.60;99.10;;;;;;5007509;28;20218;-94
2022/02/10 22:25:12;;;;;;;6.53;5.23;;;5.70;99.30;;;;;;5011348;28;20198;-91
2022/02/10 22:27:43;;;;;;;8.17;5.10;;;5.70;99.10;;;;;;5007106;28;20174;-91
2022/02/10 22:30:21;;;;;;;7.20;5.70;;;5.70;99.50;;;;;;5031012;28;20197;-93
2022/02/10 22:32:57;;;;;;;7.77;5.77;;;5.80;99.60;;;;;;5030439;28;20660;-91
2022/02/10 22:35:50;;;;;;;6.47;5.57;;;5.60;99.90;;;;;;5056064;28;20177;-92
2022/02/10 22:38:21;;;;;;;7.17;5.80;;;5.40;99.90;;;;;;5056317;28;20153;-91
2022/02/10 22:41:32;;;;;;;7.57;5.87;;;5.50;99.90;;;;;;5037529;28;20169;-91
2022/02/10 22:43:49;;;;;;;9.03;6.17;;;5.40;99.90;;;;;;5028831;28;20189;-91
2022/02/10 22:46:15;;;;;;;10.17;6.87;;;5.30;99.90;;;;;;5025823;28;20194;-90
2022/02/10 22:48:44;;;;;;;8.77;7.07;;;5.50;99.90;;;;;;5002806;28;20182;-89
2022/02/10 22:51:15;;;;;;;9.70;6.57;;;5.30;99.90;;;;;;4996460;28;20198;-89
2022/02/10 22:53:50;;;;;;;9.20;6.57;;;5.30;99.90;;;;;;5016140;28;20206;-92
2022/02/10 22:56:43;;;;;;;11.27;7.37;;;5.40;99.90;;;;;;5028955;28;20185;-93
2022/02/10 22:59:09;;;;;;;11.07;7.63;;;5.40;99.90;;;;;;5010770;28;20680;-92
2022/02/10 23:01:37;;;;;;;12.30;7.93;;;5.40;99.90;;;;;;5009595;28;20182;-92
2022/02/10 23:04:03;;;;;;;10.70;8.27;;;5.40;99.90;;;;;;5003542;28;20260;-91
2022/02/10 23:06:31;;;;;;;13.13;8.27;;;5.40;99.90;;;;;;5003247;28;20182;-90
2022/02/10 23:09:00;;;;;;;10.93;8.13;;;5.60;99.90;;;;;;5003542;28;20626;-90
2022/02/10 23:11:28;;;;;;;13.73;8.53;;;5.30;99.90;;;;;;5011389;28;20595;-92
2022/02/10 23:14:35;;;;;;;11.60;8.53;;;5.40;99.90;;;;;;5018422;28;20201;-88
2022/02/10 23:17:02;;;;;;;12.17;8.63;;;5.50;99.90;;;;;;5014365;28;20269;-90
2022/02/10 23:19:28;;;;;;;13.43;8.83;;;5.50;99.90;;;;;;5011976;28;20297;-91
2022/02/10 23:21:58;;;;;;;11.90;7.93;;;5.30;99.90;;;;;;5012807;28;20228;-90
2022/02/10 23:24:24;;;;;;;10.63;8.37;;;5.40;99.90;;;;;;5011850;28;20221;-90
2022/02/10 23:26:50;;;;;;;11.97;8.10;;;5.50;99.90;;;;;;5008652;28;20183;-91
2022/02/10 23:29:16;;;;;;;13.23;8.90;;;5.40;99.90;;;;;;5008129;28;20174;-89
2022/02/10 23:31:41;;;;;;;13.33;9.03;;;5.50;99.90;;;;;;5014753;28;20206;-90
2022/02/10 23:34:07;;;;;;;10.97;8.10;;;5.50;99.90;;;;;;5012710;28;20194;-90
2022/02/10 23:36:52;;;;;;;13.40;8.97;;;5.60;99.90;;;;;;5016504;28;20254;-92
2022/02/10 23:39:30;;;;;;;14.30;8.17;;;5.50;99.90;;;;;;5007301;28;20697;-92
2022/02/10 23:44:31;;;;;;;11.70;8.10;;;5.40;99.90;;;;;;5020760;28;20178;-92
2022/02/10 23:47:19;;;;;;;13.10;8.50;;;5.40;99.90;;;;;;5002985;28;20175;-91
2022/02/10 23:49:46;;;;;;;10.03;7.20;;;5.30;99.90;;;;;;5019579;28;20162;-91
2022/02/10 23:52:16;;;;;;;13.50;7.80;;;5.30;99.90;;;;;;5020690;28;20224;-92
2022/02/10 23:54:44;;;;;;;8.90;7.37;;;5.20;99.90;;;;;;5008684;28;20650;-91
2022/02/10 23:57:19;;;;;;;13.10;7.70;;;5.40;99.90;;;;;;5002665;28;20213;-89
